createdAt,value
2019-05-20T00:00:35.981Z,94189
2019-05-20T00:01:45.565Z,94191
2019-05-20T00:02:55.085Z,94191
2019-05-20T00:04:04.632Z,94190
2019-05-20T00:05:14.153Z,94192
2019-05-20T00:06:23.732Z,94194
2019-05-20T00:07:33.281Z,94192
2019-05-20T00:08:42.814Z,94193
2019-05-20T00:09:52.373Z,94189
2019-05-20T00:11:01.943Z,94179
2019-05-20T00:12:11.485Z,94185
2019-05-20T00:13:21.014Z,94183
2019-05-20T00:14:30.535Z,94183
2019-05-20T00:15:40.103Z,94178
2019-05-20T00:16:49.686Z,94175
2019-05-20T00:17:59.242Z,94177
2019-05-20T00:19:08.714Z,94174
2019-05-20T00:20:18.264Z,94175
2019-05-20T00:21:27.839Z,94171
2019-05-20T00:22:37.363Z,94170
2019-05-20T00:23:46.876Z,94165
2019-05-20T00:24:56.424Z,94166
2019-05-20T00:26:05.971Z,94164
2019-05-20T00:27:15.559Z,94167
2019-05-20T00:28:25.085Z,94170
2019-05-20T00:29:34.622Z,94166
2019-05-20T00:30:44.165Z,94165
2019-05-20T00:31:53.714Z,94159
2019-05-20T00:33:03.223Z,94162
2019-05-20T00:34:12.759Z,94159
2019-05-20T00:35:23.279Z,94157
2019-05-20T00:36:32.835Z,94157
2019-05-20T00:37:42.361Z,94159
2019-05-20T00:38:51.879Z,94151
2019-05-20T00:40:01.401Z,94153
2019-05-20T00:41:10.952Z,94149
2019-05-20T00:42:20.501Z,94149
2019-05-20T00:43:30.025Z,94156
2019-05-20T00:44:39.548Z,94156
2019-05-20T00:45:49.097Z,94154
2019-05-20T00:46:58.646Z,94153
2019-05-20T00:48:08.189Z,94160
2019-05-20T00:49:17.716Z,94153
2019-05-20T00:50:27.223Z,94156
2019-05-20T00:51:36.839Z,94156
2019-05-20T00:52:46.368Z,94153
2019-05-20T00:53:55.897Z,94154
2019-05-20T00:55:05.435Z,94154
2019-05-20T00:56:14.974Z,94149
2019-05-20T00:57:24.539Z,94150
2019-05-20T00:58:34.070Z,94150
2019-05-20T00:59:43.605Z,94144
2019-05-20T01:00:53.124Z,94140
2019-05-20T01:02:02.689Z,94133
2019-05-20T01:03:12.210Z,94140
2019-05-20T01:04:21.719Z,94139
2019-05-20T01:05:31.242Z,94141
2019-05-20T01:06:40.773Z,94142
2019-05-20T01:07:50.315Z,94140
2019-05-20T01:08:59.819Z,94132
2019-05-20T01:10:09.354Z,94132
2019-05-20T01:11:18.859Z,94130
2019-05-20T01:12:28.409Z,94131
2019-05-20T01:13:37.930Z,94131
2019-05-20T01:14:47.443Z,94124
2019-05-20T01:15:56.986Z,94128
2019-05-20T01:17:06.547Z,94126
2019-05-20T01:18:16.065Z,94127
2019-05-20T01:19:25.592Z,94125
2019-05-20T01:20:35.136Z,94124
2019-05-20T01:21:44.645Z,94122
2019-05-20T01:22:54.220Z,94120
2019-05-20T01:24:03.770Z,94124
2019-05-20T01:25:13.281Z,94122
2019-05-20T01:26:22.810Z,94123
2019-05-20T01:27:32.348Z,94122
2019-05-20T01:28:41.857Z,94121
2019-05-20T01:29:51.410Z,94123
2019-05-20T01:31:00.942Z,94125
2019-05-20T01:32:10.450Z,94125
2019-05-20T01:33:20.048Z,94129
2019-05-20T01:34:29.559Z,94122
2019-05-20T01:35:39.082Z,94125
2019-05-20T01:36:48.623Z,94127
2019-05-20T01:37:58.184Z,94122
2019-05-20T01:39:07.713Z,94130
2019-05-20T01:40:17.224Z,94126
2019-05-20T01:41:26.747Z,94121
2019-05-20T01:42:36.319Z,94123
2019-05-20T01:43:45.865Z,94124
2019-05-20T01:44:55.406Z,94127
2019-05-20T01:46:04.921Z,94124
2019-05-20T01:47:14.453Z,94119
2019-05-20T01:48:23.998Z,94120
2019-05-20T01:49:33.515Z,94120
2019-05-20T01:50:43.030Z,94122
2019-05-20T01:51:52.550Z,94115
2019-05-20T01:53:02.099Z,94117
2019-05-20T01:54:11.637Z,94117
2019-05-20T01:55:21.173Z,94120
2019-05-20T01:56:30.704Z,94115
2019-05-20T01:57:40.267Z,94120
2019-05-20T01:58:49.800Z,94113
2019-05-20T01:59:59.318Z,94111
2019-05-20T02:01:08.823Z,94108
2019-05-20T02:02:18.353Z,94113
2019-05-20T02:03:31.455Z,94112
2019-05-20T02:04:37.427Z,94104
2019-05-20T02:05:46.943Z,94107
2019-05-20T02:06:56.478Z,94106
2019-05-20T02:08:06.070Z,94104
2019-05-20T02:09:15.607Z,94104
2019-05-20T02:10:25.117Z,94109
2019-05-20T02:11:34.642Z,94105
2019-05-20T02:12:44.181Z,94104
2019-05-20T02:13:53.747Z,94105
2019-05-20T02:15:03.279Z,94101
2019-05-20T02:16:12.820Z,94105
2019-05-20T02:17:22.375Z,94101
2019-05-20T02:18:31.952Z,94102
2019-05-20T02:19:41.459Z,94100
2019-05-20T02:20:50.982Z,94105
2019-05-20T02:22:00.555Z,94100
2019-05-20T02:23:10.135Z,94105
2019-05-20T02:24:19.672Z,94104
2019-05-20T02:25:29.203Z,94099
2019-05-20T02:26:38.711Z,94102
2019-05-20T02:27:48.243Z,94092
2019-05-20T02:28:57.785Z,94089
2019-05-20T02:30:07.329Z,94088
2019-05-20T02:31:16.863Z,94088
2019-05-20T02:32:26.388Z,94083
2019-05-20T02:33:50.529Z,94082
2019-05-20T02:34:46.413Z,94081
2019-05-20T02:35:55.947Z,94080
2019-05-20T02:37:05.479Z,94074
2019-05-20T02:38:15.027Z,94072
2019-05-20T02:39:26.585Z,94070
2019-05-20T02:40:35.213Z,94074
2019-05-20T02:41:44.779Z,94073
2019-05-20T02:42:54.323Z,94076
2019-05-20T02:44:03.943Z,94076
2019-05-20T02:45:13.460Z,94076
2019-05-20T02:46:22.972Z,94078
2019-05-20T02:47:32.522Z,94074
2019-05-20T02:48:42.170Z,94078
2019-05-20T02:49:51.707Z,94078
2019-05-20T02:51:01.232Z,94074
2019-05-20T02:52:10.757Z,94073
2019-05-20T02:53:20.287Z,94073
2019-05-20T02:54:29.860Z,94092
2019-05-20T02:55:39.382Z,94073
2019-05-20T02:56:48.913Z,94074
2019-05-20T02:57:58.460Z,94077
2019-05-20T02:59:08.018Z,94078
2019-05-20T03:00:17.543Z,94076
2019-05-20T03:01:27.063Z,94076
2019-05-20T03:02:36.583Z,94079
2019-05-20T03:03:46.125Z,94080
2019-05-20T03:04:56.657Z,94077
2019-05-20T03:06:06.178Z,94077
2019-05-20T03:07:15.693Z,94078
2019-05-20T03:08:25.255Z,94083
2019-05-20T03:09:34.762Z,94076
2019-05-20T03:10:44.288Z,94078
2019-05-20T03:11:53.798Z,94075
2019-05-20T03:13:03.291Z,94071
2019-05-20T03:14:12.851Z,94067
2019-05-20T03:15:22.386Z,94071
2019-05-20T03:16:31.919Z,94062
2019-05-20T03:17:41.436Z,94065
2019-05-20T03:18:50.963Z,94066
2019-05-20T03:20:00.531Z,94060
2019-05-20T03:21:10.051Z,94066
2019-05-20T03:22:19.580Z,94065
2019-05-20T03:23:29.107Z,94065
2019-05-20T03:24:38.694Z,94064
2019-05-20T03:25:48.220Z,94068
2019-05-20T03:26:57.778Z,94066
2019-05-20T03:28:07.307Z,94069
2019-05-20T03:29:16.885Z,94068
2019-05-20T03:30:26.441Z,94076
2019-05-20T03:31:35.979Z,94072
2019-05-20T03:32:45.487Z,94069
2019-05-20T03:33:55.022Z,94068
2019-05-20T03:35:04.601Z,94071
2019-05-20T03:36:14.113Z,94070
2019-05-20T03:37:23.645Z,94068
2019-05-20T03:38:33.152Z,94072
2019-05-20T03:39:42.709Z,94078
2019-05-20T03:40:52.261Z,94077
2019-05-20T03:42:01.771Z,94078
2019-05-20T03:43:11.316Z,94082
2019-05-20T03:44:20.909Z,94077
2019-05-20T03:45:30.439Z,94081
2019-05-20T03:46:39.995Z,94084
2019-05-20T03:47:49.497Z,94084
2019-05-20T03:48:59.026Z,94089
2019-05-20T03:50:08.591Z,94086
2019-05-20T03:51:18.135Z,94093
2019-05-20T03:52:27.667Z,94090
2019-05-20T03:53:37.193Z,94096
2019-05-20T03:54:46.738Z,94098
2019-05-20T03:55:56.266Z,94096
2019-05-20T03:57:05.804Z,94097
2019-05-20T03:58:15.338Z,94097
2019-05-20T03:59:24.949Z,94099
2019-05-20T04:00:34.460Z,94094
2019-05-20T04:01:43.981Z,94092
2019-05-20T04:02:53.518Z,94093
2019-05-20T04:04:03.038Z,94091
2019-05-20T04:05:12.606Z,94090
2019-05-20T04:06:22.172Z,94089
2019-05-20T04:07:31.652Z,94089
2019-05-20T04:08:41.203Z,94088
2019-05-20T04:09:50.776Z,94086
2019-05-20T04:11:00.321Z,94088
2019-05-20T04:12:09.867Z,94088
2019-05-20T04:13:19.409Z,94085
2019-05-20T04:14:28.977Z,94091
2019-05-20T04:15:38.795Z,94085
2019-05-20T04:16:48.319Z,94086
2019-05-20T04:17:57.839Z,94083
2019-05-20T04:19:07.368Z,94083
2019-05-20T04:20:16.985Z,94079
2019-05-20T04:21:26.535Z,94075
2019-05-20T04:22:36.084Z,94077
2019-05-20T04:23:45.615Z,94075
2019-05-20T04:24:56.156Z,94070
2019-05-20T04:26:05.710Z,94070
2019-05-20T04:27:15.227Z,94071
2019-05-20T04:28:24.753Z,94069
2019-05-20T04:29:34.338Z,94069
2019-05-20T04:30:43.889Z,94064
2019-05-20T04:31:53.392Z,94065
2019-05-20T04:33:02.953Z,94058
2019-05-20T04:34:12.488Z,94052
2019-05-20T04:35:23.308Z,94056
2019-05-20T04:36:31.589Z,94043
2019-05-20T04:37:41.155Z,94045
2019-05-20T04:38:50.685Z,94039
2019-05-20T04:40:00.212Z,94036
2019-05-20T04:41:09.773Z,94036
2019-05-20T04:42:19.319Z,94037
2019-05-20T04:43:28.868Z,94031
2019-05-20T04:44:38.418Z,94036
2019-05-20T04:45:48.071Z,94036
2019-05-20T04:46:58.086Z,94038
2019-05-20T04:48:07.069Z,94041
2019-05-20T04:49:16.574Z,94039
2019-05-20T04:50:26.097Z,94042
2019-05-20T04:51:35.703Z,94047
2019-05-20T04:52:45.239Z,94043
2019-05-20T04:53:54.814Z,94045
2019-05-20T04:55:04.338Z,94043
2019-05-20T04:56:13.886Z,94045
2019-05-20T04:57:23.443Z,94043
2019-05-20T04:58:32.957Z,94042
2019-05-20T04:59:42.514Z,94045
2019-05-20T05:00:52.173Z,94042
2019-05-20T05:02:01.684Z,94046
2019-05-20T05:03:11.253Z,94043
2019-05-20T05:04:20.797Z,94039
2019-05-20T05:05:37.371Z,94040
2019-05-20T05:06:40.933Z,94044
2019-05-20T05:07:50.491Z,94039
2019-05-20T05:09:00.054Z,94041
2019-05-20T05:10:09.614Z,94045
2019-05-20T05:11:19.249Z,94041
2019-05-20T05:12:28.778Z,94047
2019-05-20T05:13:38.308Z,94040
2019-05-20T05:14:47.847Z,94045
2019-05-20T05:15:57.357Z,94047
2019-05-20T05:17:06.930Z,94050
2019-05-20T05:18:16.578Z,94056
2019-05-20T05:19:26.087Z,94055
2019-05-20T05:20:35.626Z,94051
2019-05-20T05:21:45.176Z,94054
2019-05-20T05:22:54.737Z,94054
2019-05-20T05:24:04.274Z,94055
2019-05-20T05:25:13.824Z,94054
2019-05-20T05:26:23.403Z,94058
2019-05-20T05:27:32.944Z,94061
2019-05-20T05:28:42.479Z,94060
2019-05-20T05:29:52.048Z,94056
2019-05-20T05:31:01.585Z,94060
2019-05-20T05:32:11.140Z,94061
2019-05-20T05:33:20.685Z,94061
2019-05-20T05:34:30.223Z,94063
2019-05-20T05:35:52.175Z,94061
2019-05-20T05:36:50.276Z,94063
2019-05-20T05:37:59.891Z,94059
2019-05-20T05:39:09.410Z,94058
2019-05-20T05:40:18.934Z,94054
2019-05-20T05:41:28.544Z,94053
2019-05-20T05:42:38.131Z,94043
2019-05-20T05:43:47.660Z,94046
2019-05-20T05:44:57.194Z,94043
2019-05-20T05:46:06.719Z,94045
2019-05-20T05:47:16.290Z,94045
2019-05-20T05:48:25.835Z,94046
2019-05-20T05:49:35.382Z,94043
2019-05-20T05:50:44.908Z,94045
2019-05-20T05:51:54.460Z,94044
2019-05-20T05:53:03.985Z,94044
2019-05-20T05:54:13.516Z,94041
2019-05-20T05:55:23.072Z,94042
2019-05-20T05:56:32.599Z,94043
2019-05-20T05:57:42.193Z,94047
2019-05-20T05:58:51.727Z,94049
2019-05-20T06:00:01.250Z,94047
2019-05-20T06:01:10.791Z,94051
2019-05-20T06:02:20.339Z,94051
2019-05-20T06:03:29.887Z,94052
2019-05-20T06:04:39.417Z,94060
2019-05-20T06:05:48.947Z,94066
2019-05-20T06:06:59.460Z,94064
2019-05-20T06:08:08.995Z,94060
2019-05-20T06:09:18.514Z,94064
2019-05-20T06:10:28.030Z,94064
2019-05-20T06:11:38.524Z,94062
2019-05-20T06:12:48.107Z,94060
2019-05-20T06:13:57.652Z,94062
2019-05-20T06:15:07.173Z,94066
2019-05-20T06:16:16.699Z,94062
2019-05-20T06:17:27.205Z,94060
2019-05-20T06:18:36.757Z,94065
2019-05-20T06:19:46.254Z,94061
2019-05-20T06:20:55.770Z,94063
2019-05-20T06:22:05.358Z,94062
2019-05-20T06:23:15.899Z,94062
2019-05-20T06:24:25.435Z,94064
2019-05-20T06:25:34.942Z,94060
2019-05-20T06:26:44.462Z,94062
2019-05-20T06:27:54.049Z,94059
2019-05-20T06:29:03.567Z,94064
2019-05-20T06:30:13.065Z,94061
2019-05-20T06:31:22.567Z,94063
2019-05-20T06:32:32.099Z,94065
2019-05-20T06:33:41.624Z,94064
2019-05-20T06:34:51.138Z,94068
2019-05-20T06:36:00.684Z,94066
2019-05-20T06:37:10.235Z,94067
2019-05-20T06:38:19.747Z,94071
2019-05-20T06:39:29.299Z,94068
2019-05-20T06:40:38.820Z,94074
2019-05-20T06:41:48.338Z,94075
2019-05-20T06:42:57.944Z,94078
2019-05-20T06:44:07.431Z,94077
2019-05-20T06:45:16.945Z,94081
2019-05-20T06:46:26.471Z,94077
2019-05-20T06:47:36.036Z,94084
2019-05-20T06:48:45.539Z,94085
2019-05-20T06:49:55.092Z,94089
2019-05-20T06:51:04.578Z,94084
2019-05-20T06:52:14.136Z,94083
2019-05-20T06:53:24.638Z,94084
2019-05-20T06:54:34.149Z,94084
2019-05-20T06:55:43.676Z,94087
2019-05-20T06:56:53.191Z,94088
2019-05-20T06:58:02.752Z,94085
2019-05-20T06:59:12.273Z,94087
2019-05-20T07:00:21.793Z,94073
2019-05-20T07:01:31.296Z,94082
2019-05-20T07:02:40.841Z,94080
2019-05-20T07:03:50.427Z,94076
2019-05-20T07:04:59.962Z,94071
2019-05-20T07:06:09.493Z,94071
2019-05-20T07:07:21.120Z,94070
2019-05-20T07:08:28.557Z,94071
2019-05-20T07:09:38.108Z,94060
2019-05-20T07:10:47.635Z,94058
2019-05-20T07:11:57.168Z,94062
2019-05-20T07:13:06.711Z,94056
2019-05-20T07:14:17.237Z,94053
2019-05-20T07:15:26.764Z,94056
2019-05-20T07:16:36.291Z,94061
2019-05-20T07:17:45.862Z,94052
2019-05-20T07:18:55.384Z,94054
2019-05-20T07:20:04.933Z,94055
2019-05-20T07:21:14.449Z,94049
2019-05-20T07:22:24.024Z,94055
2019-05-20T07:23:33.563Z,94052
2019-05-20T07:24:43.072Z,94067
2019-05-20T07:25:52.608Z,94068
2019-05-20T07:27:02.187Z,94063
2019-05-20T07:28:11.701Z,94070
2019-05-20T07:29:21.227Z,94069
2019-05-20T07:30:31.760Z,94067
2019-05-20T07:31:41.333Z,94068
2019-05-20T07:32:50.913Z,94075
2019-05-20T07:34:00.446Z,94071
2019-05-20T07:35:09.976Z,94072
2019-05-20T07:36:20.487Z,94077
2019-05-20T07:37:30.166Z,94078
2019-05-20T07:38:39.679Z,94079
2019-05-20T07:39:49.193Z,94079
2019-05-20T07:40:58.727Z,94078
2019-05-20T07:42:08.265Z,94079
2019-05-20T07:43:17.824Z,94085
2019-05-20T07:44:27.349Z,94086
2019-05-20T07:45:36.892Z,94088
2019-05-20T07:46:46.570Z,94087
2019-05-20T07:47:56.106Z,94086
2019-05-20T07:49:05.660Z,94088
2019-05-20T07:50:15.186Z,94089
2019-05-20T07:51:24.716Z,94089
2019-05-20T07:52:34.279Z,94087
2019-05-20T07:53:43.840Z,94089
2019-05-20T07:54:53.361Z,94089
2019-05-20T07:56:03.027Z,94094
2019-05-20T07:57:12.436Z,94088
2019-05-20T07:58:21.966Z,94089
2019-05-20T07:59:31.499Z,94089
2019-05-20T08:00:41.086Z,94087
2019-05-20T08:01:50.612Z,94086
2019-05-20T08:03:00.172Z,94094
2019-05-20T08:04:09.697Z,94085
2019-05-20T08:05:19.238Z,94086
2019-05-20T08:06:29.757Z,94088
2019-05-20T08:07:51.003Z,94087
2019-05-20T08:08:49.846Z,94088
2019-05-20T08:09:59.386Z,94088
2019-05-20T08:11:08.937Z,94090
2019-05-20T08:12:18.467Z,94089
2019-05-20T08:13:28.048Z,94086
2019-05-20T08:14:37.562Z,94093
2019-05-20T08:15:47.091Z,94091
2019-05-20T08:16:56.657Z,94093
2019-05-20T08:18:06.200Z,94095
2019-05-20T08:19:15.724Z,94093
2019-05-20T08:20:25.244Z,94094
2019-05-20T08:21:34.784Z,94101
2019-05-20T08:22:44.330Z,94097
2019-05-20T08:23:53.867Z,94103
2019-05-20T08:25:03.429Z,94100
2019-05-20T08:26:12.959Z,94103
2019-05-20T08:27:22.473Z,94101
2019-05-20T08:28:32.044Z,94104
2019-05-20T08:29:41.557Z,94102
2019-05-20T08:30:51.114Z,94102
2019-05-20T08:32:00.673Z,94103
2019-05-20T08:33:10.224Z,94103
2019-05-20T08:34:19.760Z,94104
2019-05-20T08:35:29.281Z,94101
2019-05-20T08:36:38.812Z,94104
2019-05-20T08:37:48.350Z,94102
2019-05-20T08:38:57.899Z,94100
2019-05-20T08:40:07.429Z,94099
2019-05-20T08:41:16.945Z,94098
2019-05-20T08:42:26.516Z,94105
2019-05-20T08:43:36.093Z,94103
2019-05-20T08:44:45.620Z,94101
2019-05-20T08:45:55.150Z,94104
2019-05-20T08:47:04.698Z,94103
2019-05-20T08:48:14.286Z,94104
2019-05-20T08:49:23.816Z,94103
2019-05-20T08:50:33.337Z,94098
2019-05-20T08:51:42.883Z,94103
2019-05-20T08:52:52.423Z,94102
2019-05-20T08:54:01.970Z,94099
2019-05-20T08:55:11.576Z,94102
2019-05-20T08:56:21.033Z,94102
2019-05-20T08:57:30.562Z,94106
2019-05-20T08:58:40.117Z,94104
2019-05-20T08:59:49.648Z,94103
2019-05-20T09:00:59.175Z,94104
2019-05-20T09:02:08.696Z,94109
2019-05-20T09:03:18.228Z,94104
2019-05-20T09:04:27.803Z,94107
2019-05-20T09:05:37.327Z,94108
2019-05-20T09:06:46.886Z,94102
2019-05-20T09:08:02.717Z,94107
2019-05-20T09:09:06.918Z,94104
2019-05-20T09:10:18.306Z,94102
2019-05-20T09:11:25.950Z,94104
2019-05-20T09:12:35.489Z,94098
2019-05-20T09:13:45.161Z,94097
2019-05-20T09:14:54.649Z,94099
2019-05-20T09:16:04.331Z,94104
2019-05-20T09:17:13.731Z,94102
2019-05-20T09:18:23.256Z,94099
2019-05-20T09:19:32.848Z,94106
2019-05-20T09:20:42.470Z,94108
2019-05-20T09:21:51.939Z,94110
2019-05-20T09:23:02.744Z,94104
2019-05-20T09:24:11.006Z,94101
2019-05-20T09:25:21.514Z,94105
2019-05-20T09:26:31.078Z,94108
2019-05-20T09:27:40.605Z,94099
2019-05-20T09:28:50.159Z,94102
2019-05-20T09:29:59.745Z,94101
2019-05-20T09:31:09.269Z,94112
2019-05-20T09:32:18.815Z,94105
2019-05-20T09:33:28.378Z,94107
2019-05-20T09:34:38.948Z,94102
2019-05-20T09:35:48.686Z,94100
2019-05-20T09:36:58.108Z,94112
2019-05-20T09:38:19.243Z,94112
2019-05-20T09:39:18.169Z,94106
2019-05-20T09:40:27.683Z,94106
2019-05-20T09:41:37.207Z,94109
2019-05-20T09:42:46.749Z,94111
2019-05-20T09:43:56.320Z,94109
2019-05-20T09:45:05.832Z,94111
2019-05-20T09:46:15.382Z,94107
2019-05-20T09:47:24.930Z,94105
2019-05-20T09:48:34.469Z,94105
2019-05-20T09:49:44.033Z,94106
2019-05-20T09:50:54.727Z,94106
2019-05-20T09:52:04.360Z,94107
2019-05-20T09:53:13.871Z,94111
2019-05-20T09:54:23.417Z,94104
2019-05-20T09:55:33.462Z,94103
2019-05-20T09:56:43.522Z,94106
2019-05-20T09:57:53.509Z,94106
2019-05-20T09:59:05.028Z,94098
2019-05-20T10:00:14.704Z,94102
2019-05-20T10:01:24.241Z,94101
2019-05-20T10:02:37.950Z,94102
2019-05-20T10:03:43.325Z,94101
2019-05-20T10:04:52.898Z,94105
2019-05-20T10:06:02.534Z,94105
2019-05-20T10:07:11.979Z,94105
2019-05-20T10:08:36.110Z,94109
2019-05-20T10:09:32.020Z,94110
2019-05-20T10:10:41.560Z,94109
2019-05-20T10:11:51.113Z,94106
2019-05-20T10:13:00.683Z,94105
2019-05-20T10:14:11.272Z,94106
2019-05-20T10:15:20.825Z,94106
2019-05-20T10:16:30.355Z,94106
2019-05-20T10:17:39.874Z,94105
2019-05-20T10:18:49.387Z,94103
2019-05-20T10:19:58.955Z,94107
2019-05-20T10:21:08.487Z,94109
2019-05-20T10:22:18.025Z,94103
2019-05-20T10:23:27.560Z,94105
2019-05-20T10:24:37.117Z,94104
2019-05-20T10:25:46.655Z,94109
2019-05-20T10:26:56.183Z,94110
2019-05-20T10:28:05.766Z,94106
2019-05-20T10:29:15.303Z,94102
2019-05-20T10:30:24.828Z,94106
2019-05-20T10:31:34.384Z,94105
2019-05-20T10:32:43.936Z,94109
2019-05-20T10:33:53.468Z,94110
2019-05-20T10:35:03.033Z,94104
2019-05-20T10:36:12.589Z,94107
2019-05-20T10:37:22.141Z,94107
2019-05-20T10:38:31.663Z,94105
2019-05-20T10:39:42.218Z,94111
2019-05-20T10:40:51.747Z,94112
2019-05-20T10:42:01.281Z,94112
2019-05-20T10:43:10.820Z,94114
2019-05-20T10:44:20.361Z,94111
2019-05-20T10:45:29.910Z,94117
2019-05-20T10:46:39.432Z,94110
2019-05-20T10:47:48.971Z,94110
2019-05-20T10:48:58.511Z,94110
2019-05-20T10:50:08.090Z,94111
2019-05-20T10:51:17.600Z,94119
2019-05-20T10:52:27.145Z,94113
2019-05-20T10:53:36.712Z,94112
2019-05-20T10:54:46.250Z,94112
2019-05-20T10:55:55.805Z,94113
2019-05-20T10:57:05.399Z,94112
2019-05-20T10:58:14.941Z,94109
2019-05-20T10:59:24.497Z,94111
2019-05-20T11:00:34.059Z,94109
2019-05-20T11:01:43.646Z,94109
2019-05-20T11:02:53.184Z,94108
2019-05-20T11:04:02.764Z,94104
2019-05-20T11:05:12.331Z,94112
2019-05-20T11:06:21.887Z,94109
2019-05-20T11:07:31.433Z,94111
2019-05-20T11:08:40.974Z,94109
2019-05-20T11:09:50.532Z,94106
2019-05-20T11:11:00.064Z,94109
2019-05-20T11:12:09.640Z,94105
2019-05-20T11:13:19.145Z,94111
2019-05-20T11:14:28.730Z,94110
2019-05-20T11:15:38.301Z,94113
2019-05-20T11:16:47.816Z,94108
2019-05-20T11:17:57.416Z,94111
2019-05-20T11:19:06.956Z,94110
2019-05-20T11:20:16.557Z,94112
2019-05-20T11:21:26.083Z,94114
2019-05-20T11:22:35.611Z,94117
2019-05-20T11:23:45.141Z,94118
2019-05-20T11:24:54.688Z,94117
2019-05-20T11:26:04.285Z,94119
2019-05-20T11:27:13.799Z,94117
2019-05-20T11:28:23.355Z,94114
2019-05-20T11:29:32.888Z,94117
2019-05-20T11:30:42.487Z,94119
2019-05-20T11:31:52.044Z,94120
2019-05-20T11:33:01.583Z,94118
2019-05-20T11:34:11.151Z,94127
2019-05-20T11:35:20.726Z,94118
2019-05-20T11:36:30.257Z,94121
2019-05-20T11:37:39.788Z,94117
2019-05-20T11:38:49.324Z,94117
2019-05-20T11:39:58.854Z,94117
2019-05-20T11:41:08.441Z,94113
2019-05-20T11:42:17.975Z,94114
2019-05-20T11:43:27.497Z,94112
2019-05-20T11:44:37.025Z,94110
2019-05-20T11:45:46.610Z,94117
2019-05-20T11:46:56.190Z,94114
2019-05-20T11:48:05.733Z,94123
2019-05-20T11:49:15.313Z,94118
2019-05-20T11:50:24.835Z,94120
2019-05-20T11:51:34.387Z,94122
2019-05-20T11:52:43.919Z,94122
2019-05-20T11:53:53.472Z,94122
2019-05-20T11:55:02.988Z,94121
2019-05-20T11:56:12.556Z,94120
2019-05-20T11:57:22.099Z,94118
2019-05-20T11:58:31.652Z,94125
2019-05-20T11:59:41.188Z,94120
2019-05-20T12:00:50.735Z,94127
2019-05-20T12:02:03.805Z,94128
2019-05-20T12:03:10.792Z,94120
2019-05-20T12:04:20.350Z,94122
2019-05-20T12:05:29.890Z,94118
2019-05-20T12:06:39.537Z,94122
2019-05-20T12:07:49.084Z,94123
2019-05-20T12:08:58.578Z,94128
2019-05-20T12:10:08.111Z,94122
2019-05-20T12:11:17.630Z,94123
2019-05-20T12:12:27.202Z,94123
2019-05-20T12:13:36.732Z,94122
2019-05-20T12:14:46.285Z,94121
2019-05-20T12:15:55.793Z,94129
2019-05-20T12:17:05.382Z,94121
2019-05-20T12:18:14.913Z,94121
2019-05-20T12:19:24.443Z,94123
2019-05-20T12:20:33.970Z,94119
2019-05-20T12:21:43.499Z,94130
2019-05-20T12:22:53.113Z,94131
2019-05-20T12:24:02.645Z,94137
2019-05-20T12:25:12.177Z,94124
2019-05-20T12:26:22.686Z,94127
2019-05-20T12:27:31.272Z,94124
2019-05-20T12:28:40.799Z,94124
2019-05-20T12:29:50.338Z,94135
2019-05-20T12:30:59.932Z,94126
2019-05-20T12:32:09.458Z,94125
2019-05-20T12:33:19.739Z,94127
2019-05-20T12:34:28.534Z,94128
2019-05-20T12:35:38.075Z,94127
2019-05-20T12:36:47.617Z,94128
2019-05-20T12:37:57.176Z,94130
2019-05-20T12:39:06.710Z,94133
2019-05-20T12:40:16.236Z,94133
2019-05-20T12:41:25.878Z,94123
2019-05-20T12:42:35.370Z,94135
2019-05-20T12:43:45.302Z,94134
2019-05-20T12:44:55.458Z,94141
2019-05-20T12:46:04.981Z,94134
2019-05-20T12:47:14.523Z,94136
2019-05-20T12:48:24.079Z,94142
2019-05-20T12:49:33.789Z,94137
2019-05-20T12:50:43.152Z,94145
2019-05-20T12:51:52.685Z,94145
2019-05-20T12:53:02.311Z,94139
2019-05-20T12:54:11.774Z,94139
2019-05-20T12:55:21.305Z,94142
2019-05-20T12:56:30.835Z,94137
2019-05-20T12:57:40.384Z,94136
2019-05-20T12:58:49.978Z,94152
2019-05-20T13:00:00.290Z,94142
2019-05-20T13:01:09.826Z,94145
2019-05-20T13:02:19.368Z,94143
2019-05-20T13:03:28.922Z,94149
2019-05-20T13:04:38.446Z,94145
2019-05-20T13:05:47.962Z,94145
2019-05-20T13:06:57.505Z,94149
2019-05-20T13:08:07.095Z,94145
2019-05-20T13:09:16.642Z,94145
2019-05-20T13:10:29.472Z,94153
2019-05-20T13:11:35.685Z,94151
2019-05-20T13:12:45.234Z,94149
2019-05-20T13:13:54.817Z,94152
2019-05-20T13:15:04.342Z,94153
2019-05-20T13:16:13.876Z,94153
2019-05-20T13:17:23.878Z,94153
2019-05-20T13:18:33.000Z,94153
2019-05-20T13:19:43.522Z,94166
2019-05-20T13:20:53.079Z,94159
2019-05-20T13:22:02.671Z,94165
2019-05-20T13:23:14.185Z,94161
2019-05-20T13:24:21.706Z,94160
2019-05-20T13:25:31.248Z,94159
2019-05-20T13:26:40.783Z,94161
2019-05-20T13:27:50.310Z,94153
2019-05-20T13:29:00.022Z,94153
2019-05-20T13:30:09.368Z,94158
2019-05-20T13:31:18.902Z,94169
2019-05-20T13:32:28.452Z,94164
2019-05-20T13:33:38.015Z,94174
2019-05-20T13:34:47.564Z,94173
2019-05-20T13:35:57.106Z,94177
2019-05-20T13:37:06.620Z,94172
2019-05-20T13:38:16.160Z,94179
2019-05-20T13:39:25.692Z,94185
2019-05-20T13:40:45.489Z,94189
2019-05-20T13:41:45.717Z,94187
2019-05-20T13:42:55.233Z,94192
2019-05-20T13:44:04.790Z,94188
2019-05-20T13:45:14.413Z,94188
2019-05-20T13:46:23.897Z,94199
2019-05-20T13:47:33.422Z,94203
2019-05-20T13:48:42.980Z,94205
2019-05-20T13:49:52.517Z,94203
2019-05-20T13:51:02.089Z,94201
2019-05-20T13:52:11.590Z,94196
2019-05-20T13:53:21.131Z,94199
2019-05-20T13:54:30.666Z,94195
2019-05-20T13:55:40.173Z,94195
2019-05-20T13:56:49.702Z,94199
2019-05-20T13:57:59.280Z,94192
2019-05-20T13:59:08.863Z,94199
2019-05-20T14:00:18.700Z,94190
2019-05-20T14:01:28.222Z,94192
2019-05-20T14:02:37.752Z,94189
2019-05-20T14:03:47.326Z,94191
2019-05-20T14:04:57.822Z,94189
2019-05-20T14:06:07.383Z,94193
2019-05-20T14:07:16.918Z,94194
2019-05-20T14:08:26.545Z,94194
2019-05-20T14:09:36.072Z,94189
2019-05-20T14:11:01.209Z,94189
2019-05-20T14:11:56.126Z,94189
2019-05-20T14:13:05.662Z,94190
2019-05-20T14:14:15.205Z,94191
2019-05-20T14:15:24.737Z,94193
2019-05-20T14:16:34.276Z,94193
2019-05-20T14:17:43.817Z,94188
2019-05-20T14:18:53.390Z,94190
2019-05-20T14:20:03.047Z,94190
2019-05-20T14:21:12.428Z,94189
2019-05-20T14:22:21.972Z,94189
2019-05-20T14:23:31.502Z,94189
2019-05-20T14:24:41.087Z,94195
2019-05-20T14:25:50.621Z,94195
2019-05-20T14:27:00.191Z,94191
2019-05-20T14:28:09.703Z,94187
2019-05-20T14:29:19.259Z,94192
2019-05-20T14:30:28.807Z,94191
2019-05-20T14:31:38.302Z,94192
2019-05-20T14:32:47.833Z,94192
2019-05-20T14:33:57.500Z,94190
2019-05-20T14:35:07.089Z,94197
2019-05-20T14:36:37.632Z,94201
2019-05-20T14:37:27.110Z,94194
2019-05-20T14:38:36.641Z,94200
2019-05-20T14:39:46.335Z,94201
2019-05-20T14:40:55.794Z,94195
2019-05-20T14:42:05.393Z,94191
2019-05-20T14:43:14.892Z,94196
2019-05-20T14:44:24.533Z,94198
2019-05-20T14:45:34.108Z,94191
2019-05-20T14:46:43.630Z,94201
2019-05-20T14:47:53.154Z,94197
2019-05-20T14:49:02.925Z,94201
2019-05-20T14:50:12.271Z,94197
2019-05-20T14:51:21.819Z,94202
2019-05-20T14:52:31.335Z,94204
2019-05-20T14:53:40.905Z,94201
2019-05-20T14:54:50.462Z,94202
2019-05-20T14:55:59.990Z,94196